createdAt,value
2018-11-04T00:01:36.641Z,99137.00
2018-11-04T00:04:05.902Z,99128.41
2018-11-04T00:06:35.029Z,99127.11
2018-11-04T00:09:05.382Z,99133.47
2018-11-04T00:11:34.583Z,99135.30
2018-11-04T00:14:04.125Z,99136.70
2018-11-04T00:16:33.313Z,99135.81
2018-11-04T00:19:02.485Z,99132.62
2018-11-04T00:21:31.661Z,99142.24
2018-11-04T00:24:00.873Z,99153.72
2018-11-04T00:26:30.078Z,99135.55
2018-11-04T00:28:59.275Z,99134.73
2018-11-04T00:31:28.541Z,99134.77
2018-11-04T00:33:57.753Z,99129.62
2018-11-04T00:36:26.947Z,99133.92
2018-11-04T00:38:56.174Z,99127.53
2018-11-04T00:41:25.407Z,99132.81
2018-11-04T00:43:54.614Z,99126.38
2018-11-04T00:46:23.801Z,99115.13
2018-11-04T00:48:53.008Z,99112.20
2018-11-04T00:51:22.224Z,99111.12
2018-11-04T00:53:51.618Z,99109.48
2018-11-04T00:56:20.802Z,99101.98
2018-11-04T00:58:50.023Z,99096.60
2018-11-04T01:01:19.291Z,99091.77
2018-11-04T01:03:48.464Z,99088.02
2018-11-04T01:06:17.720Z,99082.12
2018-11-04T01:08:46.952Z,99082.97
2018-11-04T01:11:16.115Z,99078.34
2018-11-04T01:13:45.364Z,99077.52
2018-11-04T01:16:14.687Z,99075.92
2018-11-04T01:18:43.893Z,99072.76
2018-11-04T01:21:13.134Z,99081.82
2018-11-04T01:23:42.295Z,99069.20
2018-11-04T01:26:11.559Z,99073.25
2018-11-04T01:28:40.787Z,99075.11
2018-11-04T01:31:10.090Z,99065.97
2018-11-04T01:33:39.220Z,99061.22
2018-11-04T01:36:08.417Z,99059.06
2018-11-04T01:38:37.952Z,99059.58
2018-11-04T01:41:07.332Z,99067.31
2018-11-04T01:43:37.082Z,99052.57
2018-11-04T01:46:06.288Z,99047.22
2018-11-04T01:48:35.578Z,99055.57
2018-11-04T01:51:04.797Z,99044.88
2018-11-04T01:53:34.026Z,99049.90
2018-11-04T01:56:03.268Z,99046.92
2018-11-04T01:58:32.513Z,99043.66
2018-11-04T02:01:01.896Z,99040.50
2018-11-04T02:03:31.115Z,99040.44
2018-11-04T02:06:00.282Z,99032.42
2018-11-04T02:08:29.612Z,99028.11
2018-11-04T02:10:58.791Z,99027.36
2018-11-04T02:13:27.982Z,99020.88
2018-11-04T02:15:57.247Z,99010.47
2018-11-04T02:18:26.449Z,99001.90
2018-11-04T02:20:55.671Z,98999.75
2018-11-04T02:23:24.975Z,98989.64
2018-11-04T02:25:54.205Z,98990.62
2018-11-04T02:28:23.525Z,98987.69
2018-11-04T02:30:52.698Z,98986.05
2018-11-04T02:33:21.868Z,98991.70
2018-11-04T02:35:51.052Z,99000.23
2018-11-04T02:38:20.458Z,99001.02
2018-11-04T02:40:49.854Z,99004.21
2018-11-04T02:43:19.052Z,98999.16
2018-11-04T02:45:48.317Z,98995.12
2018-11-04T02:48:17.522Z,98984.39
2018-11-04T02:50:46.743Z,98986.91
2018-11-04T02:53:15.977Z,98990.26
2018-11-04T02:55:45.230Z,98989.51
2018-11-04T02:58:14.540Z,98997.79
2018-11-04T03:00:43.831Z,98993.29
2018-11-04T03:03:13.016Z,98990.06
2018-11-04T03:05:42.195Z,98983.91
2018-11-04T03:08:11.432Z,98986.84
2018-11-04T03:10:40.591Z,98982.83
2018-11-04T03:13:09.842Z,98985.20
2018-11-04T03:15:39.041Z,98987.87
2018-11-04T03:18:08.199Z,98976.34
2018-11-04T03:20:37.398Z,98974.80
2018-11-04T03:23:07.175Z,98980.09
2018-11-04T03:25:36.366Z,98980.02
2018-11-04T03:28:06.001Z,98970.73
2018-11-04T03:30:35.557Z,98971.45
2018-11-04T03:33:04.747Z,98963.44
2018-11-04T03:35:33.926Z,98961.87
2018-11-04T03:38:03.126Z,98948.50
2018-11-04T03:40:32.307Z,98948.21
2018-11-04T03:43:01.480Z,98946.35
2018-11-04T03:45:30.727Z,98940.19
2018-11-04T03:47:59.919Z,98942.86
2018-11-04T03:50:29.184Z,98947.17
2018-11-04T03:53:02.495Z,98932.47
2018-11-04T03:55:31.664Z,98938.89
2018-11-04T03:58:00.915Z,98932.80
2018-11-04T04:00:30.107Z,98923.96
2018-11-04T04:02:59.335Z,98928.16
2018-11-04T04:05:28.740Z,98940.52
2018-11-04T04:07:57.995Z,98942.44
2018-11-04T04:10:27.140Z,98956.59
2018-11-04T04:12:56.636Z,98955.25
2018-11-04T04:15:25.908Z,98950.72
2018-11-04T04:17:55.107Z,98933.37
2018-11-04T04:20:24.316Z,98928.52
2018-11-04T04:22:53.544Z,98945.11
2018-11-04T04:25:22.746Z,98948.31
2018-11-04T04:27:51.975Z,98940.81
2018-11-04T04:30:21.167Z,98940.06
2018-11-04T04:32:50.319Z,98943.58
2018-11-04T04:35:19.511Z,98935.27
2018-11-04T04:37:48.659Z,98939.28
2018-11-04T04:40:17.814Z,98935.30
2018-11-04T04:42:46.975Z,98917.14
2018-11-04T04:45:16.173Z,98917.95
2018-11-04T04:47:45.345Z,98919.29
2018-11-04T04:50:14.575Z,98915.02
2018-11-04T04:52:43.830Z,98911.33
2018-11-04T04:55:13.058Z,98904.38
2018-11-04T04:57:42.309Z,98907.90
2018-11-04T05:00:11.563Z,98918.59
2018-11-04T05:02:40.741Z,98909.50
2018-11-04T05:05:10.044Z,98905.48
2018-11-04T05:07:39.266Z,98898.05
2018-11-04T05:10:08.575Z,98899.94
2018-11-04T05:12:37.780Z,98905.55
2018-11-04T05:15:08.420Z,98909.64
2018-11-04T05:17:37.772Z,98899.17
2018-11-04T05:20:07.023Z,98897.81
2018-11-04T05:22:36.223Z,98897.03
2018-11-04T05:25:06.279Z,98889.88
2018-11-04T05:27:35.569Z,98904.34
2018-11-04T05:30:06.198Z,98912.92
2018-11-04T05:32:35.369Z,98916.64
2018-11-04T05:35:04.735Z,98913.76
2018-11-04T05:37:33.972Z,98919.95
2018-11-04T05:40:03.206Z,98912.48
2018-11-04T05:42:32.404Z,98916.83
2018-11-04T05:45:01.801Z,98918.12
2018-11-04T05:47:31.026Z,98918.93
2018-11-04T05:50:00.258Z,98917.35
2018-11-04T05:52:29.561Z,98915.99
2018-11-04T05:54:58.763Z,98915.76
2018-11-04T05:57:28.024Z,98912.81
2018-11-04T05:59:57.252Z,98917.14
2018-11-04T06:02:26.604Z,98914.50
2018-11-04T06:04:55.776Z,98918.51
2018-11-04T06:07:25.007Z,98915.28
2018-11-04T06:09:54.211Z,98911.53
2018-11-04T06:12:23.410Z,98913.20
2018-11-04T06:14:52.699Z,98907.52
2018-11-04T06:17:21.880Z,98905.92
2018-11-04T06:19:51.131Z,98909.41
2018-11-04T06:22:20.340Z,98909.98
2018-11-04T06:24:49.572Z,98910.30
2018-11-04T06:27:18.854Z,98903.37
2018-11-04T06:29:48.030Z,98909.30
2018-11-04T06:32:17.283Z,98910.06
2018-11-04T06:34:46.565Z,98913.58
2018-11-04T06:37:15.795Z,98909.32
2018-11-04T06:39:45.024Z,98909.11
2018-11-04T06:42:14.216Z,98908.00
2018-11-04T06:44:43.475Z,98905.64
2018-11-04T06:47:12.755Z,98901.63
2018-11-04T06:49:41.960Z,98908.31
2018-11-04T06:52:11.280Z,98906.81
2018-11-04T06:54:41.202Z,98910.03
2018-11-04T06:57:10.424Z,98895.81
2018-11-04T06:59:39.643Z,98909.77
2018-11-04T07:02:08.852Z,98902.00
2018-11-04T07:04:38.079Z,98906.02
2018-11-04T07:07:07.510Z,98903.36
2018-11-04T07:09:36.723Z,98903.14
2018-11-04T07:12:06.337Z,98901.83
2018-11-04T07:14:35.556Z,98896.45
2018-11-04T07:17:04.884Z,98886.82
2018-11-04T07:19:34.145Z,98899.16
2018-11-04T07:22:03.355Z,98898.14
2018-11-04T07:24:32.595Z,98898.69
2018-11-04T07:27:01.864Z,98889.05
2018-11-04T07:29:31.286Z,98890.16
2018-11-04T07:32:00.579Z,98879.44
2018-11-04T07:34:29.761Z,98882.16
2018-11-04T07:36:59.023Z,98882.66
2018-11-04T07:39:28.246Z,98892.36
2018-11-04T07:41:57.442Z,98885.88
2018-11-04T07:44:26.752Z,98886.19
2018-11-04T07:46:55.950Z,98891.56
2018-11-04T07:49:25.253Z,98875.47
2018-11-04T07:51:54.678Z,98873.32
2018-11-04T07:54:23.912Z,98879.00
2018-11-04T07:56:53.205Z,98880.63
2018-11-04T07:59:22.442Z,98868.08
2018-11-04T08:01:51.669Z,98868.08
2018-11-04T08:04:21.020Z,98865.39
2018-11-04T08:06:50.463Z,98876.42
2018-11-04T08:09:19.747Z,98874.51
2018-11-04T08:11:48.973Z,98878.30
2018-11-04T08:14:18.289Z,98883.14
2018-11-04T08:16:47.466Z,98879.67
2018-11-04T08:19:16.643Z,98874.88
2018-11-04T08:21:45.854Z,98880.55
2018-11-04T08:24:15.067Z,98863.17
2018-11-04T08:26:44.343Z,98856.21
2018-11-04T08:29:13.562Z,98850.65
2018-11-04T08:31:42.939Z,98850.37
2018-11-04T08:34:12.211Z,98849.33
2018-11-04T08:36:41.881Z,98850.41
2018-11-04T08:39:11.541Z,98863.83
2018-11-04T08:41:40.755Z,98849.09
2018-11-04T08:44:10.011Z,98843.47
2018-11-04T08:46:39.199Z,98846.68
2018-11-04T08:49:08.539Z,98841.32
2018-11-04T08:51:37.902Z,98833.29
2018-11-04T08:54:07.142Z,98829.57
2018-11-04T08:56:36.426Z,98833.36
2018-11-04T08:59:05.895Z,98827.19
2018-11-04T09:01:35.107Z,98819.40
2018-11-04T09:04:04.531Z,98811.65
2018-11-04T09:06:33.889Z,98804.46
2018-11-04T09:10:00.517Z,98810.63
2018-11-04T09:12:29.845Z,98811.73
2018-11-04T09:14:59.097Z,98817.36
2018-11-04T09:17:28.310Z,98815.77
2018-11-04T09:19:57.546Z,98818.19
2018-11-04T09:22:26.860Z,98816.02
2018-11-04T09:24:56.918Z,98808.80
2018-11-04T09:27:26.325Z,98802.91
2018-11-04T09:29:55.649Z,98807.21
2018-11-04T09:32:24.896Z,98805.88
2018-11-04T09:34:54.265Z,98807.22
2018-11-04T09:37:23.440Z,98812.33
2018-11-04T09:39:52.785Z,98802.95
2018-11-04T09:42:21.970Z,98813.41
2018-11-04T09:44:51.165Z,98794.09
2018-11-04T09:47:20.482Z,98795.19
2018-11-04T09:49:49.702Z,98785.52
2018-11-04T09:52:18.965Z,98785.80
2018-11-04T09:54:48.266Z,98796.81
2018-11-04T09:57:17.509Z,98797.59
2018-11-04T09:59:46.969Z,98782.84
2018-11-04T10:02:16.154Z,98782.02
2018-11-04T10:04:45.348Z,98785.54
2018-11-04T10:07:14.760Z,98790.10
2018-11-04T10:09:43.957Z,98789.30
2018-11-04T10:12:13.181Z,98797.62
2018-11-04T10:14:42.480Z,98794.67
2018-11-04T10:17:11.793Z,98772.13
2018-11-04T10:19:41.230Z,98770.23
2018-11-04T10:22:10.408Z,98772.39
2018-11-04T10:24:39.716Z,98775.31
2018-11-04T10:27:09.440Z,98770.77
2018-11-04T10:29:38.732Z,98774.25
2018-11-04T10:32:07.992Z,98768.08
2018-11-04T10:34:37.343Z,98767.02
2018-11-04T10:37:07.020Z,98760.84
2018-11-04T10:39:36.262Z,98759.25
2018-11-04T10:42:05.694Z,98759.77
2018-11-04T10:44:34.938Z,98761.65
2018-11-04T10:47:04.184Z,98753.07
2018-11-04T10:49:33.588Z,98758.16
2018-11-04T10:52:02.675Z,98740.17
2018-11-04T10:54:31.869Z,98750.38
2018-11-04T10:57:01.558Z,98752.78
2018-11-04T10:59:30.962Z,98744.48
2018-11-04T11:02:00.140Z,98744.77
2018-11-04T11:04:29.388Z,98750.91
2018-11-04T11:06:58.620Z,98736.70
2018-11-04T11:09:27.818Z,98728.09
2018-11-04T11:11:57.019Z,98724.87
2018-11-04T11:14:26.205Z,98723.80
2018-11-04T11:16:55.433Z,98725.94
2018-11-04T11:19:24.898Z,98717.08
2018-11-04T11:21:54.194Z,98718.98
2018-11-04T11:24:23.457Z,98718.98
2018-11-04T11:26:52.719Z,98715.73
2018-11-04T11:29:22.015Z,98711.70
2018-11-04T11:31:51.278Z,98716.53
2018-11-04T11:34:20.596Z,98717.36
2018-11-04T11:36:49.810Z,98708.23
2018-11-04T11:39:19.125Z,98719.50
2018-11-04T11:41:48.402Z,98702.83
2018-11-04T11:44:17.714Z,98707.39
2018-11-04T11:46:47.039Z,98697.47
2018-11-04T11:49:16.287Z,98705.00
2018-11-04T11:51:45.588Z,98698.27
2018-11-04T11:54:14.785Z,98703.11
2018-11-04T11:56:44.153Z,98703.09
2018-11-04T11:59:13.419Z,98696.38
2018-11-04T12:01:42.584Z,98695.83
2018-11-04T12:04:11.987Z,98711.67
2018-11-04T12:06:41.199Z,98700.39
2018-11-04T12:09:10.631Z,98695.55
2018-11-04T12:11:39.864Z,98689.13
2018-11-04T12:14:09.122Z,98680.80
2018-11-04T12:16:38.374Z,98684.02
2018-11-04T12:19:07.823Z,98698.25
2018-11-04T12:21:37.157Z,98691.52
2018-11-04T12:24:06.529Z,98684.27
2018-11-04T12:26:35.954Z,98685.09
2018-11-04T12:29:05.645Z,98681.07
2018-11-04T12:31:34.974Z,98664.68
2018-11-04T12:34:04.249Z,98661.19
2018-11-04T12:36:33.489Z,98663.07
2018-11-04T12:39:03.062Z,98665.22
2018-11-04T12:41:32.327Z,98668.44
2018-11-04T12:44:01.674Z,98664.98
2018-11-04T12:46:30.963Z,98662.83
2018-11-04T12:49:00.247Z,98659.86
2018-11-04T12:51:29.613Z,98651.00
2018-11-04T12:53:58.824Z,98659.34
2018-11-04T12:56:28.132Z,98650.22
2018-11-04T12:58:57.588Z,98645.64
2018-11-04T13:01:26.767Z,98652.87
2018-11-04T13:03:57.233Z,98649.67
2018-11-04T13:06:26.518Z,98645.13
2018-11-04T13:08:55.731Z,98642.69
2018-11-04T13:11:24.966Z,98638.95
2018-11-04T13:13:54.187Z,98652.37
2018-11-04T13:16:23.514Z,98638.69
2018-11-04T13:18:52.711Z,98633.57
2018-11-04T13:21:21.976Z,98637.89
2018-11-04T13:23:51.251Z,98646.20
2018-11-04T13:26:20.498Z,98636.28
2018-11-04T13:28:49.721Z,98632.27
2018-11-04T13:31:18.981Z,98624.75
2018-11-04T13:33:48.307Z,98630.92
2018-11-04T13:36:17.593Z,98620.98
2018-11-04T13:38:46.912Z,98615.10
2018-11-04T13:41:16.149Z,98616.17
2018-11-04T13:43:45.390Z,98617.80
2018-11-04T13:46:14.763Z,98617.80
2018-11-04T13:48:43.973Z,98610.56
2018-11-04T13:51:13.371Z,98619.14
2018-11-04T13:53:42.615Z,98632.28
2018-11-04T13:56:11.968Z,98622.09
2018-11-04T13:58:41.283Z,98629.34
2018-11-04T14:01:10.499Z,98613.77
2018-11-04T14:03:39.735Z,98607.61
2018-11-04T14:06:09.297Z,98618.91
2018-11-04T14:08:38.556Z,98607.09
2018-11-04T14:11:08.135Z,98610.84
2018-11-04T14:13:37.410Z,98602.81
2018-11-04T14:16:06.702Z,98613.55
2018-11-04T14:18:36.083Z,98603.08
2018-11-04T14:21:05.665Z,98612.21
2018-11-04T14:23:34.897Z,98607.66
2018-11-04T14:26:04.216Z,98613.56
2018-11-04T14:28:33.522Z,98612.48
2018-11-04T14:31:02.845Z,98611.95
2018-11-04T14:33:32.238Z,98618.93
2018-11-04T14:36:01.458Z,98617.85
2018-11-04T14:38:30.750Z,98626.96
2018-11-04T14:41:00.002Z,98622.63
2018-11-04T14:43:29.283Z,98614.05
2018-11-04T14:45:58.523Z,98614.59
2018-11-04T14:48:27.752Z,98610.57
2018-11-04T14:50:57.083Z,98600.91
2018-11-04T14:53:26.370Z,98606.27
2018-11-04T14:55:55.607Z,98603.06
2018-11-04T14:58:24.857Z,98606.02
2018-11-04T15:00:54.056Z,98599.84
2018-11-04T15:03:24.434Z,98606.02
2018-11-04T15:05:53.716Z,98602.78
2018-11-04T15:08:23.124Z,98600.09
2018-11-04T15:10:53.333Z,98594.73
2018-11-04T15:13:22.612Z,98601.72
2018-11-04T15:15:51.850Z,98588.32
2018-11-04T15:18:21.184Z,98585.36
2018-11-04T15:20:50.496Z,98589.91
2018-11-04T15:23:19.715Z,98585.64
2018-11-04T15:25:49.064Z,98590.19
2018-11-04T15:28:18.310Z,98596.36
2018-11-04T15:30:47.590Z,98592.88
2018-11-04T15:33:16.934Z,98586.98
2018-11-04T15:35:46.271Z,98587.23
2018-11-04T15:38:15.528Z,98593.92
2018-11-04T15:40:44.828Z,98591.53
2018-11-04T15:43:13.979Z,98596.89
2018-11-04T15:45:43.207Z,98595.80
2018-11-04T15:48:12.581Z,98587.76
2018-11-04T15:50:41.855Z,98595.80
2018-11-04T15:53:11.287Z,98591.00
2018-11-04T15:55:40.838Z,98598.48
2018-11-04T15:58:10.122Z,98598.23
2018-11-04T16:00:39.403Z,98594.20
2018-11-04T16:03:09.013Z,98593.12
2018-11-04T16:05:38.351Z,98595.02
2018-11-04T16:08:07.649Z,98597.14
2018-11-04T16:10:36.963Z,98601.44
2018-11-04T16:13:06.251Z,98597.95
2018-11-04T16:15:35.622Z,98598.48
2018-11-04T16:18:04.975Z,98598.48
2018-11-04T16:20:34.265Z,98602.25
2018-11-04T16:23:03.429Z,98599.29
2018-11-04T16:25:32.669Z,98601.44
2018-11-04T16:28:01.863Z,98610.01
2018-11-04T16:30:31.127Z,98609.76
2018-11-04T16:33:00.404Z,98604.40
2018-11-04T16:35:29.607Z,98605.46
2018-11-04T16:37:58.884Z,98601.72
2018-11-04T16:40:27.978Z,98604.93
2018-11-04T16:42:58.071Z,98602.25
2018-11-04T16:45:27.323Z,98603.84
2018-11-04T16:47:56.787Z,98605.70
2018-11-04T16:50:25.970Z,98603.31
2018-11-04T16:52:55.154Z,98598.48
2018-11-04T16:55:24.361Z,98596.86
2018-11-04T16:57:53.615Z,98596.61
2018-11-04T17:00:22.835Z,98604.36
2018-11-04T17:02:52.021Z,98597.91
2018-11-04T17:05:21.339Z,98610.78
2018-11-04T17:07:50.542Z,98606.76
2018-11-04T17:10:19.812Z,98598.72
2018-11-04T17:12:49.105Z,98599.53
2018-11-04T17:15:18.370Z,98595.23
2018-11-04T17:17:47.901Z,98598.43
2018-11-04T17:20:18.218Z,98600.86
2018-11-04T17:22:47.577Z,98600.30
2018-11-04T17:25:16.866Z,98601.91
2018-11-04T17:27:46.179Z,98600.04
2018-11-04T17:30:16.940Z,98596.27
2018-11-04T17:32:46.562Z,98590.09
2018-11-04T17:35:16.710Z,98589.84
2018-11-04T17:37:46.638Z,98586.36
2018-11-04T17:40:16.700Z,98578.58
2018-11-04T17:42:45.991Z,98575.93
2018-11-04T17:45:16.423Z,98590.09
2018-11-04T17:47:46.246Z,98582.34
2018-11-04T17:50:17.015Z,98581.25
2018-11-04T17:52:46.343Z,98581.81
2018-11-04T17:55:16.309Z,98583.16
2018-11-04T17:57:46.070Z,98592.25
2018-11-04T18:00:16.468Z,98594.64
2018-11-04T18:02:45.723Z,98583.92
2018-11-04T18:05:15.109Z,98596.55
2018-11-04T18:07:44.847Z,98595.98
2018-11-04T18:10:15.499Z,98590.61
2018-11-04T18:12:44.773Z,98595.72
2018-11-04T18:15:15.032Z,98601.08
2018-11-04T18:17:44.439Z,98586.34
2018-11-04T18:20:13.957Z,98588.51
2018-11-04T18:22:43.202Z,98595.51
2018-11-04T18:25:12.934Z,98595.50
2018-11-04T18:27:42.241Z,98583.78
2018-11-04T18:30:15.368Z,98582.69
2018-11-04T18:32:45.288Z,98582.68
2018-11-04T18:35:14.707Z,98580.25
2018-11-04T18:37:44.061Z,98584.80
2018-11-04T18:40:15.533Z,98599.25
2018-11-04T18:42:45.212Z,98590.39
2018-11-04T18:45:15.719Z,98585.03
2018-11-04T18:47:45.293Z,98589.86
2018-11-04T18:50:15.295Z,98588.24
2018-11-04T18:52:44.634Z,98589.05
2018-11-04T18:55:13.812Z,98585.56
2018-11-04T18:57:44.196Z,98591.48
2018-11-04T19:00:14.850Z,98600.05
2018-11-04T19:02:44.483Z,98589.86
2018-11-04T19:05:14.034Z,98591.73
2018-11-04T19:07:44.880Z,98594.41
2018-11-04T19:10:16.842Z,98589.05
2018-11-04T19:12:46.170Z,98595.21
2018-11-04T19:15:15.536Z,98596.55
2018-11-04T19:17:44.820Z,98595.98
2018-11-04T19:20:14.972Z,98603.24
2018-11-04T19:22:44.322Z,98603.23
2018-11-04T19:25:14.464Z,98601.38
2018-11-04T19:27:43.710Z,98599.23
2018-11-04T19:30:14.866Z,98597.89
2018-11-04T19:32:44.645Z,98593.59
2018-11-04T19:35:15.192Z,98593.58
2018-11-04T19:37:44.363Z,98592.48
2018-11-04T19:40:14.675Z,98589.80
2018-11-04T19:42:45.105Z,98585.25
2018-11-04T19:45:14.532Z,98587.16
2018-11-04T19:47:43.778Z,98583.39
2018-11-04T19:50:16.726Z,98581.53
2018-11-04T19:52:45.977Z,98583.16
2018-11-04T19:55:15.219Z,98590.66
2018-11-04T19:57:44.434Z,98591.97
2018-11-04T20:00:14.168Z,98596.26
2018-11-04T20:02:43.337Z,98585.83
2018-11-04T20:05:13.282Z,98586.91
2018-11-04T20:07:43.029Z,98592.53
2018-11-04T20:10:19.281Z,98598.66
2018-11-04T20:12:53.982Z,98594.64
2018-11-04T20:15:23.366Z,98589.03
2018-11-04T20:17:52.721Z,98596.55
2018-11-04T20:20:24.026Z,98591.49
2018-11-04T20:22:53.434Z,98591.48
2018-11-04T20:25:27.977Z,98596.55
2018-11-04T20:27:57.214Z,98597.08
2018-11-04T20:30:26.547Z,98586.89
2018-11-04T20:33:03.871Z,98590.14
2018-11-04T20:35:33.319Z,98592.25
2018-11-04T20:38:02.745Z,98590.10
2018-11-04T20:40:37.323Z,98592.25
2018-11-04T20:43:06.864Z,98590.91
2018-11-04T20:45:36.114Z,98593.81
2018-11-04T20:48:11.058Z,98597.01
2018-11-04T20:50:45.599Z,98590.30
2018-11-04T20:53:14.925Z,98590.58
2018-11-04T20:55:49.404Z,98584.66
2018-11-04T20:58:18.718Z,98592.43
2018-11-04T21:00:48.977Z,98592.15
2018-11-04T21:03:18.176Z,98596.41
2018-11-04T21:05:47.439Z,98598.81
2018-11-04T21:08:16.791Z,98597.98
2018-11-04T21:10:46.065Z,98595.01
2018-11-04T21:13:15.362Z,98594.71
2018-11-04T21:15:44.642Z,98597.38
2018-11-04T21:18:13.914Z,98588.50
2018-11-04T21:20:43.745Z,98583.14
2018-11-04T21:23:12.991Z,98583.05
2018-11-04T21:25:42.432Z,98586.50
2018-11-04T21:28:11.591Z,98584.05
2018-11-04T21:30:40.890Z,98578.75
2018-11-04T21:33:10.262Z,98582.28
2018-11-04T21:35:39.514Z,98578.85
2018-11-04T21:38:08.822Z,98582.63
2018-11-04T21:40:38.035Z,98579.44
2018-11-04T21:43:07.634Z,98577.08
2018-11-04T21:45:36.628Z,98585.66
2018-11-04T21:48:06.353Z,98577.34
2018-11-04T21:50:35.606Z,98577.92
2018-11-04T21:53:04.821Z,98578.23
2018-11-04T21:55:34.361Z,98577.15
2018-11-04T21:58:03.457Z,98579.87
2018-11-04T22:00:32.728Z,98573.13
2018-11-04T22:03:01.990Z,98573.13
2018-11-04T22:05:31.219Z,98569.94
2018-11-04T22:08:00.437Z,98569.69
2018-11-04T22:10:29.726Z,98561.65
2018-11-04T22:12:58.862Z,98562.70
2018-11-04T22:15:28.082Z,98556.55
2018-11-04T22:17:57.282Z,98557.62
2018-11-04T22:20:26.456Z,98567.00
2018-11-04T22:22:55.625Z,98567.23
2018-11-04T22:25:24.865Z,98549.83
2018-11-04T22:27:54.056Z,98560.03
2018-11-04T22:30:23.254Z,98562.98
2018-11-04T22:32:52.396Z,98572.88
2018-11-04T22:35:21.582Z,98573.13
2018-11-04T22:37:50.789Z,98572.88
2018-11-04T22:40:19.966Z,98575.27
2018-11-04T22:42:49.412Z,98567.75
2018-11-04T22:45:18.597Z,98570.94
2018-11-04T22:47:47.807Z,98567.98
2018-11-04T22:50:17.015Z,98567.96
2018-11-04T22:52:46.299Z,98560.20
2018-11-04T22:55:15.670Z,98567.66
2018-11-04T22:57:45.340Z,98565.27
2018-11-04T23:00:19.699Z,98573.61
2018-11-04T23:02:49.990Z,98567.44
2018-11-04T23:05:24.357Z,98571.48
2018-11-04T23:07:53.606Z,98579.49
2018-11-04T23:10:22.834Z,98574.12
2018-11-04T23:12:52.024Z,98565.27
2018-11-04T23:15:21.223Z,98565.26
2018-11-04T23:17:50.357Z,98565.77
2018-11-04T23:20:19.588Z,98567.40
2018-11-04T23:22:48.798Z,98570.60
2018-11-04T23:25:18.056Z,98569.14
2018-11-04T23:27:47.327Z,98564.31
2018-11-04T23:30:20.666Z,98556.79
2018-11-04T23:32:49.908Z,98546.09
2018-11-04T23:35:19.180Z,98554.09
2018-11-04T23:37:48.389Z,98558.09
2018-11-04T23:40:17.611Z,98548.48
2018-11-04T23:42:46.833Z,98544.18
2018-11-04T23:45:16.166Z,98547.09
2018-11-04T23:47:45.344Z,98565.81
2018-11-04T23:50:16.509Z,98561.52
2018-11-04T23:52:46.141Z,98551.86
2018-11-04T23:55:15.813Z,98554.50
2018-11-04T23:57:45.013Z,98559.25
